Terminal Aerodrome Forecast
Issued by NWS Omaha/Valley, NE

Home | Current Version | Previous Version | Text Only | Print | Product List | Glossary On
Versions: 1 2 3 4 5 6 7 8 9 10 11 12 13 14 15 16 17 18 19 20 21 22 23 24 25 26 27
000
FTUS43 KOAX 241720
TAFOFK
TAF
KOFK 241720Z 2418/2518 16019G25KT P6SM BKN250
     FM250300 17012KT P6SM BKN250
     FM251500 26013KT P6SM FEW250=

USA.gov is the U.S. government's official web portal to all federal, state and local government web resources and services.